X  Zamknij Lotniskowe dane METAR     EPPO Poznań-Ławica Airport
Temperatura
6°C Temperatura
2°C Punkt rosy
76% Wilgotność



Wiatr
26 KM/H
16 MPH
7 M/S
14 KTS



300°
WNW
Warunki bieżące

Pochmurno Pochmurno
Ciśnienie 1031.92 (hPa) - 30.47 (inHg)
Widoczność 6.2 (mil) - 10 (km)
Lotnisko
Kod lotniska EPPO

Położenie: Poznań-Ławica Airport
Odległość: 98 (km)

Metar:
EPPO 270900Z 30014KT 9999 BKN013 06/02 Q1032

Czas: 27-02-2021 10:00 CET